Aérodrome :
LOGIN :

S'inscrire | Disclaimer

   EN    FR    IT 

 










Légende :    VFR   VFR Marginal   IFR   IFR Intensif   IFR Très Intensif
Visi : 
Plafond : 
>= 8 km
>= 3000ft
5 à 8 km
1000 à 3000 ft
1500m à 5 km
500 à 1000 ft
800 à 1500m
200 à 500 ft
< 800m
< 200 ft
Symboles :   Orages  Brouillard  Fortes neiges  Fortes précipitations  Vent > 20 kt
SIGMETs :   Divers  Orages  Givrage  Turbulence  Onde Orograph.  Cendres Volcan.






- Altitude de l'aérodrome : 681 ft
- Code IATA : LBA


EGNM - Leeds Bradford

DERNIER METAR :
  • 242150Z 27019KT 9999 FEW023 04/01 Q0998

METARs EXPIRÉS :
  • 242120Z 27022KT 9999 FEW033 04/01 Q0998
  • 242050Z 26018KT 9999 FEW033 04/01 Q0999
  • 242020Z 26019KT 9999 FEW033 04/01 Q0998
  • 241950Z 26021G33KT 9999 -DZRA SCT027 04/01 Q0998
  • 241920Z 26026G39KT 9999 -DZRA FEW014 SCT032 04/01 Q0998

TAF TAF EGNM
Valide du 24 à 18h jusqu'au 25 à 18h UTC


241656Z 2418/2518 25018KT 9999 SCT030
TEMPO 2418/2424 26020G30KT
PROB40
TEMPO 2418/2420 26028G43KT
PROB30
TEMPO 2418/2424 7000 SHRA BKN010
TEMPO 2503/2518 6000 SHRASN BKN009
PROB30
TEMPO 2506/2518 3000 SHSN BKN003
ATIS : +44 113 250 9696 (x2489)



MET'MAP, la Météo Aéronautique d'un coup d'oeil ! - Copyright ORBIFLY Décembre 2007 - Disclaimer

ORBIFLY MET'MAP TEAM :

Programmation & Développement : Alexandra Zaïnal
Sur une idée originale de : Baudouin d'Aumeries
Assistance à la programmation : Marc-Olivier Méhu
Soutien technique & logistique : Manuel Goepfert

Contact : metmap@orbifly.com




SOURCES & CREDITS :

   NOAA